Time;durP1;ratioP1;P1;durP2;ratioP2;P2;SDS_P1;SDS_P2;PMS_P1;PMS_P2;Temp;Humidity;BMP_temperature;BMP_pressure;BME280_temperature;BME280_humidity;BME280_pressure;Samples;Min_cycle;Max_cycle;Signal;HPM_P1;HPM_P2
2022/10/26 00:02:18;;;;;;;21.83;6.30;;;10.70;99.90;;;;;;5094706;27;20178;-62
2022/10/26 00:04:44;;;;;;;9.20;5.37;;;10.70;99.90;;;;;;5106892;27;20186;-61
2022/10/26 00:07:10;;;;;;;8.47;5.47;;;10.70;99.90;;;;;;5106141;28;20193;-61
2022/10/26 00:09:36;;;;;;;9.60;5.30;;;10.70;99.90;;;;;;5103077;28;20573;-61
2022/10/26 00:12:02;;;;;;;13.67;5.70;;;10.70;99.90;;;;;;5099451;28;20426;-61
2022/10/26 00:14:28;;;;;;;8.37;6.00;;;10.70;99.90;;;;;;5101339;28;20219;-61
2022/10/26 00:16:54;;;;;;;15.57;6.27;;;10.70;99.90;;;;;;5103291;28;20447;-60
2022/10/26 00:19:19;;;;;;;7.57;5.20;;;10.70;99.90;;;;;;5104527;28;20183;-61
2022/10/26 00:21:45;;;;;;;11.53;5.20;;;10.70;99.90;;;;;;5106412;27;20470;-60
2022/10/26 00:24:11;;;;;;;10.10;5.33;;;10.80;99.90;;;;;;5104726;28;20173;-60
2022/10/26 00:26:38;;;;;;;16.53;5.60;;;10.80;99.90;;;;;;5106976;28;20315;-60
2022/10/26 00:29:04;;;;;;;9.87;4.53;;;10.80;99.90;;;;;;5098980;28;20861;-61
2022/10/26 00:31:30;;;;;;;7.33;4.83;;;10.70;99.90;;;;;;5100815;28;20805;-61
2022/10/26 00:33:56;;;;;;;10.13;4.80;;;10.70;99.90;;;;;;5105933;28;20435;-61
2022/10/26 00:36:23;;;;;;;12.90;5.40;;;10.70;99.90;;;;;;5106208;28;20263;-61
2022/10/26 00:38:50;;;;;;;9.00;5.17;;;10.70;99.90;;;;;;5093962;28;20435;-61
2022/10/26 00:41:19;;;;;;;14.77;5.80;;;10.70;99.90;;;;;;5096064;28;20477;-61
2022/10/26 00:43:45;;;;;;;10.43;5.57;;;10.70;99.90;;;;;;5100177;27;20432;-61
2022/10/26 00:46:33;;;;;;;6.67;5.30;;;10.70;99.90;;;;;;5102125;28;20431;-60
2022/10/26 00:49:02;;;;;;;11.80;5.10;;;10.70;99.90;;;;;;5102936;28;20431;-60
2022/10/26 00:51:35;;;;;;;8.90;4.90;;;10.70;99.90;;;;;;5106464;28;20430;-60
2022/10/26 00:54:05;;;;;;;9.60;5.23;;;10.70;99.90;;;;;;5100798;28;20446;-61
2022/10/26 00:56:31;;;;;;;7.37;4.60;;;10.60;99.90;;;;;;5101132;28;20434;-61
2022/10/26 00:59:01;;;;;;;12.87;4.67;;;10.60;99.90;;;;;;5096866;28;20423;-61
2022/10/26 01:01:27;;;;;;;11.30;4.97;;;10.60;99.90;;;;;;5107404;28;20523;-61
2022/10/26 01:03:54;;;;;;;9.40;4.40;;;10.50;99.90;;;;;;5098164;28;20412;-61
2022/10/26 01:06:20;;;;;;;10.93;4.40;;;10.50;99.90;;;;;;5106882;28;20415;-61
2022/10/26 01:08:47;;;;;;;5.70;4.30;;;10.50;99.90;;;;;;5101270;28;20407;-60
2022/10/26 01:11:12;;;;;;;4.40;4.00;;;10.50;99.90;;;;;;5108396;28;20483;-60
2022/10/26 01:13:40;;;;;;;13.60;4.07;;;10.50;99.90;;;;;;5103400;28;20457;-60
2022/10/26 01:16:12;;;;;;;6.10;4.20;;;10.50;99.90;;;;;;5107248;28;20188;-61
2022/10/26 01:18:40;;;;;;;8.83;4.43;;;10.50;99.90;;;;;;5110797;28;20501;-61
2022/10/26 01:21:08;;;;;;;9.27;3.83;;;10.50;99.90;;;;;;5102857;28;20800;-61
2022/10/26 01:24:19;;;;;;;6.80;4.00;;;10.50;99.90;;;;;;5107586;28;20439;-61
2022/10/26 01:27:14;;;;;;;6.23;4.13;;;10.50;99.90;;;;;;5080656;28;20461;-61
2022/10/26 01:29:51;;;;;;;9.90;4.17;;;10.50;99.90;;;;;;5100973;28;20431;-61
2022/10/26 01:32:29;;;;;;;5.80;4.47;;;10.50;99.90;;;;;;5108146;28;20434;-61
2022/10/26 01:35:05;;;;;;;13.00;4.03;;;10.60;99.90;;;;;;5098941;28;20515;-61
2022/10/26 01:37:37;;;;;;;5.27;4.10;;;10.50;99.90;;;;;;5097781;28;20466;-60
2022/10/26 01:40:13;;;;;;;9.60;4.20;;;10.50;99.90;;;;;;5109555;28;20459;-61
2022/10/26 01:42:43;;;;;;;10.43;4.50;;;10.50;99.90;;;;;;5102986;28;20930;-61
2022/10/26 01:45:10;;;;;;;5.40;4.00;;;10.50;99.90;;;;;;5094417;28;20443;-60
2022/10/26 01:47:37;;;;;;;16.63;4.47;;;10.50;99.90;;;;;;5062166;27;1085065;-61
2022/10/26 01:50:04;;;;;;;5.30;3.57;;;10.50;99.90;;;;;;5107009;28;20179;-60
2022/10/26 01:52:30;;;;;;;7.13;4.07;;;10.50;99.90;;;;;;5098283;28;20455;-61
2022/10/26 01:55:05;;;;;;;7.37;4.50;;;10.50;99.90;;;;;;5107200;27;20434;-61
2022/10/26 01:57:37;;;;;;;8.17;4.30;;;10.50;99.90;;;;;;5105916;27;20257;-61
2022/10/26 02:00:08;;;;;;;9.60;4.80;;;10.50;99.90;;;;;;5099613;28;20444;-61
2022/10/26 02:02:51;;;;;;;7.80;4.43;;;10.50;99.90;;;;;;5103372;28;20924;-61
2022/10/26 02:05:48;;;;;;;9.83;3.93;;;10.50;99.90;;;;;;5100372;28;20424;-60
2022/10/26 02:08:27;;;;;;;8.80;4.30;;;10.50;99.90;;;;;;5104850;28;21128;-61
2022/10/26 02:11:20;;;;;;;7.60;5.03;;;10.50;99.90;;;;;;5099192;28;20426;-61
2022/10/26 02:13:50;;;;;;;12.23;4.70;;;10.50;99.90;;;;;;5093656;28;20564;-61
2022/10/26 02:16:23;;;;;;;5.53;4.70;;;10.50;99.90;;;;;;5106755;28;20898;-60
2022/10/26 02:18:49;;;;;;;6.23;4.80;;;10.50;99.90;;;;;;5098647;28;20451;-61
2022/10/26 02:21:23;;;;;;;7.50;5.63;;;10.50;99.90;;;;;;5108209;28;20466;-61
2022/10/26 02:23:52;;;;;;;9.83;5.00;;;10.50;99.90;;;;;;5096212;28;20180;-61
2022/10/26 02:26:22;;;;;;;7.40;4.80;;;10.60;99.90;;;;;;5103017;28;20430;-60
2022/10/26 02:28:50;;;;;;;6.50;4.70;;;10.60;99.90;;;;;;5107401;28;20881;-61
2022/10/26 02:31:18;;;;;;;9.20;5.60;;;10.60;99.90;;;;;;5104083;28;20576;-62
2022/10/26 02:33:47;;;;;;;9.47;5.80;;;10.60;99.90;;;;;;5100088;28;20832;-60
2022/10/26 02:36:16;;;;;;;8.90;5.50;;;10.70;99.90;;;;;;5100567;28;20829;-61
2022/10/26 02:38:42;;;;;;;10.40;5.20;;;10.70;99.90;;;;;;5098091;28;20435;-61
2022/10/26 02:41:11;;;;;;;8.83;5.27;;;10.70;99.90;;;;;;5102569;28;21097;-60
2022/10/26 02:43:43;;;;;;;11.43;5.00;;;10.70;99.90;;;;;;5105922;28;20461;-61
2022/10/26 02:46:14;;;;;;;9.07;4.93;;;10.80;99.90;;;;;;5095726;27;20424;-61
2022/10/26 02:48:40;;;;;;;7.27;5.27;;;10.80;99.90;;;;;;5107921;28;20426;-60
2022/10/26 02:51:15;;;;;;;13.00;5.60;;;10.80;99.90;;;;;;5099660;28;20434;-61
2022/10/26 02:53:48;;;;;;;8.63;5.93;;;10.90;99.90;;;;;;5104560;28;20557;-61
2022/10/26 02:56:40;;;;;;;9.40;5.63;;;10.90;99.90;;;;;;5105639;28;20419;-61
2022/10/26 02:59:08;;;;;;;7.77;5.37;;;10.90;99.90;;;;;;5097310;28;21086;-61
2022/10/26 03:01:34;;;;;;;8.90;4.60;;;10.90;99.90;;;;;;5091644;28;20454;-61
2022/10/26 03:04:00;;;;;;;9.03;5.37;;;10.90;99.90;;;;;;5108490;28;21000;-60
2022/10/26 03:06:25;;;;;;;8.10;5.67;;;10.90;99.90;;;;;;5099834;28;20510;-60
2022/10/26 03:08:51;;;;;;;9.90;5.13;;;10.90;99.90;;;;;;5093843;28;20181;-60
2022/10/26 03:11:17;;;;;;;8.40;5.97;;;10.90;99.90;;;;;;5107932;28;20595;-61
2022/10/26 03:13:43;;;;;;;9.30;7.50;;;10.90;99.90;;;;;;5108942;28;20173;-61
2022/10/26 03:16:09;;;;;;;13.03;6.60;;;10.90;99.90;;;;;;5110138;28;21002;-61
2022/10/26 03:18:34;;;;;;;12.33;7.53;;;10.90;99.90;;;;;;5099472;28;20477;-61
2022/10/26 03:21:00;;;;;;;18.30;8.10;;;10.90;99.90;;;;;;5095049;28;20196;-61
2022/10/26 03:23:26;;;;;;;9.73;6.73;;;11.00;99.90;;;;;;5096318;28;20180;-61
2022/10/26 03:25:55;;;;;;;9.83;5.80;;;11.00;99.90;;;;;;5106315;28;20173;-61
2022/10/26 03:28:21;;;;;;;11.37;5.77;;;11.00;99.90;;;;;;5103896;28;20197;-60
2022/10/26 03:30:46;;;;;;;12.50;6.03;;;11.00;99.90;;;;;;5088586;28;20457;-61
2022/10/26 03:33:12;;;;;;;9.60;5.40;;;11.00;99.90;;;;;;5106710;28;20758;-61
2022/10/26 03:35:38;;;;;;;10.33;5.30;;;11.00;99.90;;;;;;5096182;28;20177;-60
2022/10/26 03:38:03;;;;;;;9.50;6.03;;;11.00;99.90;;;;;;5109160;27;20196;-61
2022/10/26 03:40:29;;;;;;;12.63;5.03;;;11.00;99.90;;;;;;5103024;28;20197;-60
2022/10/26 03:42:54;;;;;;;9.60;5.37;;;11.00;99.90;;;;;;5108973;28;20176;-61
2022/10/26 03:45:20;;;;;;;10.83;5.90;;;11.00;99.90;;;;;;5108188;28;20752;-61
2022/10/26 03:47:47;;;;;;;9.20;5.50;;;10.90;99.90;;;;;;5105378;28;20233;-61
2022/10/26 03:50:15;;;;;;;10.13;6.27;;;10.90;99.90;;;;;;5098280;28;20161;-61
2022/10/26 03:52:40;;;;;;;9.03;6.60;;;10.90;99.90;;;;;;5105662;27;20869;-61
2022/10/26 03:55:07;;;;;;;7.20;5.53;;;10.90;99.90;;;;;;5111395;28;20418;-61
2022/10/26 03:57:32;;;;;;;8.03;5.53;;;10.90;99.90;;;;;;5100772;28;20292;-60
2022/10/26 03:59:58;;;;;;;10.67;6.10;;;10.90;99.90;;;;;;5102855;28;20535;-61
2022/10/26 04:02:23;;;;;;;16.43;6.23;;;10.80;99.90;;;;;;5103073;28;20272;-60
2022/10/26 04:04:49;;;;;;;13.30;6.13;;;10.80;99.90;;;;;;5106701;27;20173;-61
2022/10/26 04:07:15;;;;;;;9.60;5.33;;;10.80;99.90;;;;;;5111052;28;20227;-61
2022/10/26 04:09:40;;;;;;;9.40;6.00;;;10.80;99.90;;;;;;5100366;28;20230;-60
2022/10/26 04:12:06;;;;;;;7.27;5.67;;;10.80;99.90;;;;;;5112852;28;20659;-62
2022/10/26 04:14:32;;;;;;;8.67;5.80;;;10.80;99.90;;;;;;5107261;28;20226;-62
2022/10/26 04:16:57;;;;;;;12.07;6.20;;;10.80;99.90;;;;;;5105518;28;20278;-62
2022/10/26 04:19:23;;;;;;;11.47;6.80;;;10.80;99.90;;;;;;5101517;27;20173;-62
2022/10/26 04:21:50;;;;;;;10.27;6.27;;;10.80;99.90;;;;;;5104836;27;20261;-62
2022/10/26 04:24:16;;;;;;;8.60;6.07;;;10.80;99.90;;;;;;5109457;28;20223;-62
2022/10/26 04:26:42;;;;;;;8.07;5.97;;;10.80;99.90;;;;;;5103244;28;20450;-62
2022/10/26 04:29:08;;;;;;;16.73;6.17;;;10.80;99.90;;;;;;5102472;28;20178;-63
2022/10/26 04:31:33;;;;;;;6.43;4.77;;;10.80;99.90;;;;;;5097797;28;20192;-62
2022/10/26 04:33:59;;;;;;;9.70;5.73;;;10.90;99.90;;;;;;5100708;28;20446;-62
2022/10/26 04:36:25;;;;;;;9.87;6.40;;;10.80;99.90;;;;;;5105506;28;20203;-63
2022/10/26 04:38:50;;;;;;;8.40;6.43;;;10.90;99.90;;;;;;5101831;28;20196;-62
2022/10/26 04:41:16;;;;;;;16.73;6.17;;;10.90;99.90;;;;;;5103754;27;20201;-54
2022/10/26 04:43:41;;;;;;;14.33;5.67;;;10.90;99.90;;;;;;5097399;27;20578;-53
2022/10/26 04:46:07;;;;;;;16.93;6.10;;;10.90;99.90;;;;;;5103378;28;20531;-56
2022/10/26 04:48:33;;;;;;;11.40;6.37;;;10.90;99.90;;;;;;5107520;28;20250;-62
2022/10/26 04:50:59;;;;;;;12.07;6.90;;;10.90;99.90;;;;;;5111601;28;20173;-62
2022/10/26 04:53:25;;;;;;;17.37;8.90;;;10.90;99.90;;;;;;5099016;28;20197;-62
2022/10/26 04:55:58;;;;;;;15.60;8.30;;;10.90;99.90;;;;;;5101090;28;20447;-62
2022/10/26 04:58:24;;;;;;;9.53;7.33;;;10.90;99.90;;;;;;5099227;28;20458;-62
2022/10/26 05:00:50;;;;;;;14.03;6.90;;;10.90;99.90;;;;;;5102358;28;20446;-62
2022/10/26 05:03:15;;;;;;;13.43;7.03;;;10.90;99.90;;;;;;5109589;28;20260;-62
2022/10/26 05:05:41;;;;;;;12.33;7.20;;;10.90;99.90;;;;;;5113146;28;20640;-62
2022/10/26 05:08:07;;;;;;;12.77;7.57;;;10.90;99.90;;;;;;5101508;28;20228;-62
2022/10/26 05:10:32;;;;;;;18.93;6.27;;;10.90;99.90;;;;;;5111751;28;20172;-63
2022/10/26 05:12:59;;;;;;;10.97;6.73;;;10.90;99.90;;;;;;5114037;28;20573;-62
2022/10/26 05:15:26;;;;;;;18.47;7.20;;;10.90;99.90;;;;;;5110090;28;20177;-61
2022/10/26 05:18:02;;;;;;;11.87;6.90;;;10.90;99.90;;;;;;5103564;28;20466;-62
2022/10/26 05:20:30;;;;;;;17.53;6.90;;;10.90;99.90;;;;;;5110532;28;20452;-63
2022/10/26 05:23:17;;;;;;;10.10;6.67;;;10.90;99.90;;;;;;5110865;28;20414;-63
2022/10/26 05:25:43;;;;;;;12.00;6.07;;;10.80;99.90;;;;;;5109829;28;20429;-60
2022/10/26 05:28:12;;;;;;;12.23;6.53;;;10.90;99.90;;;;;;5103733;27;20440;-62
2022/10/26 05:30:38;;;;;;;12.37;8.17;;;10.90;99.90;;;;;;5105593;28;20445;-62
2022/10/26 05:33:04;;;;;;;14.00;8.43;;;10.90;99.90;;;;;;5109701;28;20423;-63
2022/10/26 05:35:31;;;;;;;13.83;7.50;;;10.90;99.90;;;;;;5108844;28;20983;-62
2022/10/26 05:37:57;;;;;;;11.90;7.40;;;11.00;99.90;;;;;;5104185;28;20451;-62
2022/10/26 05:40:23;;;;;;;18.70;8.90;;;11.20;99.90;;;;;;5111924;27;20527;-63
2022/10/26 05:42:49;;;;;;;13.70;8.70;;;11.20;99.90;;;;;;5109514;28;20415;-62
2022/10/26 05:45:16;;;;;;;18.23;8.07;;;11.30;99.90;;;;;;5108145;28;20898;-62
2022/10/26 05:47:44;;;;;;;12.40;8.67;;;11.40;99.90;;;;;;5102143;28;20453;-63
2022/10/26 05:50:11;;;;;;;15.07;8.67;;;11.40;99.90;;;;;;5112013;28;20501;-62
2022/10/26 05:52:41;;;;;;;11.90;9.10;;;11.50;99.90;;;;;;5110916;28;20429;-62
2022/10/26 05:55:08;;;;;;;9.87;8.53;;;11.50;99.90;;;;;;5109493;28;20435;-62
2022/10/26 05:57:35;;;;;;;13.23;8.40;;;11.60;99.90;;;;;;5106753;28;20446;-62
2022/10/26 06:00:06;;;;;;;17.07;8.90;;;11.60;99.90;;;;;;5107371;28;20991;-62
2022/10/26 06:02:48;;;;;;;21.80;9.00;;;11.60;99.90;;;;;;5108088;28;20534;-62
2022/10/26 06:05:22;;;;;;;9.13;7.80;;;11.60;99.90;;;;;;5102051;28;20403;-62
2022/10/26 06:07:48;;;;;;;12.67;8.27;;;11.60;99.90;;;;;;5101488;28;20451;-63
2022/10/26 06:10:14;;;;;;;14.23;8.83;;;11.60;99.90;;;;;;5101809;28;20439;-62
2022/10/26 06:12:40;;;;;;;13.07;8.40;;;11.60;99.90;;;;;;5099623;28;20424;-62
2022/10/26 06:15:06;;;;;;;13.10;8.33;;;11.60;99.90;;;;;;5111429;28;20417;-62
2022/10/26 06:17:38;;;;;;;15.33;8.83;;;11.60;99.90;;;;;;5109598;28;20670;-63
2022/10/26 06:20:21;;;;;;;14.77;8.80;;;11.50;99.90;;;;;;5110130;28;20485;-62
2022/10/26 06:23:05;;;;;;;16.07;7.70;;;11.50;99.90;;;;;;5110290;28;20450;-64
2022/10/26 06:25:54;;;;;;;11.90;8.20;;;11.40;99.90;;;;;;5102089;28;20461;-62
2022/10/26 06:28:31;;;;;;;9.57;7.63;;;11.50;99.90;;;;;;5103479;28;20450;-61
2022/10/26 06:30:57;;;;;;;9.90;7.60;;;11.50;99.90;;;;;;5104435;28;21115;-62
2022/10/26 06:33:23;;;;;;;11.40;7.80;;;11.50;99.90;;;;;;5101486;28;20411;-62
2022/10/26 06:36:19;;;;;;;8.70;7.43;;;11.40;99.90;;;;;;5108690;28;20184;-62
2022/10/26 06:38:47;;;;;;;11.47;7.97;;;11.40;99.90;;;;;;5096819;28;20948;-62
2022/10/26 06:41:14;;;;;;;11.00;7.23;;;11.40;99.90;;;;;;5106535;28;20458;-63
2022/10/26 06:43:40;;;;;;;16.60;8.53;;;11.40;99.90;;;;;;5110149;28;20399;-63
2022/10/26 06:46:15;;;;;;;16.13;8.50;;;11.40;99.90;;;;;;5101712;28;20420;-62
2022/10/26 06:49:04;;;;;;;14.83;8.20;;;11.40;99.90;;;;;;5098567;28;20446;-62
2022/10/26 06:51:34;;;;;;;14.40;9.10;;;11.40;99.90;;;;;;5106669;28;20448;-62
2022/10/26 06:54:19;;;;;;;12.20;8.40;;;11.40;99.90;;;;;;5109268;28;20445;-62
2022/10/26 06:56:45;;;;;;;12.53;8.80;;;11.50;99.90;;;;;;5098546;28;20490;-62
2022/10/26 06:59:37;;;;;;;12.90;8.77;;;11.50;99.90;;;;;;5110693;28;20410;-63
2022/10/26 07:02:03;;;;;;;16.93;7.90;;;11.50;99.90;;;;;;5107718;28;20457;-62
2022/10/26 07:04:28;;;;;;;10.27;7.07;;;11.50;99.90;;;;;;5107812;28;20427;-62
2022/10/26 07:06:55;;;;;;;15.87;7.27;;;11.50;99.90;;;;;;5108804;28;20207;-64
2022/10/26 07:09:21;;;;;;;13.57;6.80;;;11.50;99.90;;;;;;5111861;28;20582;-62
2022/10/26 07:11:47;;;;;;;17.70;7.63;;;11.50;99.90;;;;;;5112898;28;20483;-62
2022/10/26 07:14:13;;;;;;;10.77;7.23;;;11.40;99.90;;;;;;5106712;28;20418;-62
2022/10/26 07:16:39;;;;;;;11.63;7.13;;;11.40;99.90;;;;;;5113779;28;20454;-62
2022/10/26 07:19:04;;;;;;;10.30;7.13;;;11.30;99.90;;;;;;5114083;28;20219;-63
2022/10/26 07:21:30;;;;;;;11.40;8.00;;;11.30;99.90;;;;;;5110982;28;20666;-62
2022/10/26 07:23:55;;;;;;;18.23;7.47;;;11.30;99.90;;;;;;5106902;28;20688;-62
2022/10/26 07:26:24;;;;;;;13.10;7.23;;;11.30;99.90;;;;;;5114525;28;20173;-62
2022/10/26 07:28:50;;;;;;;13.03;7.67;;;11.20;99.90;;;;;;5113897;28;20169;-62
2022/10/26 07:31:15;;;;;;;11.73;7.10;;;11.30;99.90;;;;;;5112564;28;20437;-62
2022/10/26 07:33:41;;;;;;;12.30;7.20;;;11.30;99.90;;;;;;5101954;28;20435;-62
2022/10/26 07:36:09;;;;;;;15.40;7.03;;;11.40;99.90;;;;;;5106125;28;20218;-62
2022/10/26 07:38:36;;;;;;;13.40;7.90;;;11.40;99.90;;;;;;5113044;28;21006;-62
2022/10/26 07:41:02;;;;;;;11.73;7.73;;;11.50;99.90;;;;;;5105982;28;20442;-62
2022/10/26 07:43:28;;;;;;;11.30;7.23;;;11.60;99.90;;;;;;5111263;28;20414;-62
2022/10/26 07:45:54;;;;;;;11.07;7.73;;;11.60;99.90;;;;;;5111693;28;20487;-62
2022/10/26 07:48:19;;;;;;;9.70;6.50;;;11.70;99.90;;;;;;5113087;28;20462;-63
2022/10/26 07:50:45;;;;;;;9.13;6.77;;;11.70;99.90;;;;;;5104594;28;20172;-63
2022/10/26 07:53:10;;;;;;;9.93;7.23;;;11.70;99.90;;;;;;5095030;28;20528;-62
2022/10/26 07:55:36;;;;;;;13.10;8.00;;;11.80;99.90;;;;;;5106446;28;20218;-63
2022/10/26 07:58:02;;;;;;;12.73;7.60;;;11.90;99.90;;;;;;5105705;28;20189;-62
2022/10/26 08:00:28;;;;;;;17.83;8.27;;;12.00;99.90;;;;;;5111900;28;20557;-61
2022/10/26 08:02:54;;;;;;;13.80;8.57;;;12.00;99.90;;;;;;5112244;28;20534;-62
2022/10/26 08:05:20;;;;;;;13.13;8.27;;;12.00;99.90;;;;;;5113198;28;20483;-62
2022/10/26 08:07:45;;;;;;;10.90;8.30;;;12.10;99.90;;;;;;5094286;28;20427;-62
2022/10/26 08:10:13;;;;;;;14.67;8.43;;;12.10;99.90;;;;;;5108042;28;20169;-62
2022/10/26 08:12:39;;;;;;;13.07;8.90;;;12.20;99.90;;;;;;5112686;28;20180;-62
2022/10/26 08:15:05;;;;;;;15.70;8.20;;;12.30;99.90;;;;;;5112760;28;20426;-62
2022/10/26 08:17:31;;;;;;;10.87;7.87;;;12.30;99.90;;;;;;5111555;28;20431;-63
2022/10/26 08:19:56;;;;;;;12.97;8.60;;;12.50;99.90;;;;;;5112341;28;20793;-62
2022/10/26 08:22:22;;;;;;;19.10;11.23;;;12.60;99.90;;;;;;5112059;28;20674;-63
2022/10/26 08:24:47;;;;;;;19.00;11.60;;;12.70;99.90;;;;;;5106907;28;20174;-62
2022/10/26 08:27:14;;;;;;;17.53;8.70;;;12.90;99.90;;;;;;5101520;28;20182;-62
2022/10/26 08:29:41;;;;;;;16.23;9.77;;;13.10;99.90;;;;;;5101844;28;20204;-62
2022/10/26 08:32:06;;;;;;;11.67;7.43;;;13.20;99.90;;;;;;5110302;28;20959;-62
2022/10/26 08:34:32;;;;;;;15.77;7.37;;;13.40;99.90;;;;;;5109614;28;20419;-62
2022/10/26 08:36:58;;;;;;;9.50;6.73;;;13.50;99.90;;;;;;5093078;28;20186;-62
2022/10/26 08:39:26;;;;;;;9.80;6.23;;;13.60;99.90;;;;;;5092586;28;20177;-62
2022/10/26 08:42:10;;;;;;;9.00;5.93;;;13.60;99.90;;;;;;5107997;28;20266;-60
2022/10/26 08:44:46;;;;;;;10.40;5.20;;;13.70;99.90;;;;;;5108832;28;20418;-62
2022/10/26 08:47:15;;;;;;;12.27;5.40;;;13.70;99.90;;;;;;5111074;28;20470;-62
2022/10/26 08:50:03;;;;;;;6.87;4.90;;;13.80;99.90;;;;;;5113929;28;20451;-62
2022/10/26 08:52:45;;;;;;;12.57;5.23;;;13.80;99.90;;;;;;5108726;28;20423;-61
2022/10/26 08:55:15;;;;;;;13.17;6.33;;;13.90;99.90;;;;;;5096024;28;20443;-62
2022/10/26 08:57:42;;;;;;;13.27;6.57;;;14.00;99.90;;;;;;5113032;28;20492;-62
2022/10/26 09:00:22;;;;;;;15.63;5.20;;;14.00;99.90;;;;;;5109319;28;20442;-62
2022/10/26 09:02:52;;;;;;;9.20;4.70;;;14.10;99.90;;;;;;5098557;28;20458;-62
2022/10/26 09:05:27;;;;;;;12.33;5.13;;;14.10;99.90;;;;;;5113358;28;20402;-62
2022/10/26 09:08:03;;;;;;;12.83;4.83;;;14.20;99.90;;;;;;5113367;28;20460;-67
2022/10/26 09:10:32;;;;;;;11.60;5.20;;;14.30;99.90;;;;;;5106652;28;20437;-63
2022/10/26 09:13:23;;;;;;;14.00;5.87;;;14.30;99.90;;;;;;5113346;28;20464;-62
2022/10/26 09:15:56;;;;;;;12.97;5.40;;;14.40;99.90;;;;;;5111777;27;20945;-62
2022/10/26 09:18:46;;;;;;;13.60;4.87;;;14.50;99.90;;;;;;5110505;28;20471;-63
2022/10/26 09:21:33;;;;;;;12.43;4.83;;;14.60;99.90;;;;;;5111549;28;20656;-62
2022/10/26 09:24:22;;;;;;;10.70;5.37;;;14.80;99.90;;;;;;5113113;28;20423;-61
2022/10/26 09:26:53;;;;;;;10.57;4.77;;;14.90;99.90;;;;;;5102445;28;20443;-62
2022/10/26 09:29:22;;;;;;;13.33;5.20;;;15.10;99.90;;;;;;5111975;28;20457;-62
2022/10/26 09:31:52;;;;;;;12.97;5.00;;;15.20;99.90;;;;;;5096345;28;20469;-62
2022/10/26 09:34:38;;;;;;;11.30;4.67;;;15.40;99.90;;;;;;5103253;28;20423;-62
2022/10/26 09:37:22;;;;;;;9.70;4.10;;;15.50;99.90;;;;;;5099883;28;20990;-62
2022/10/26 09:40:06;;;;;;;10.00;4.23;;;15.60;99.90;;;;;;5106730;28;20484;-62
2022/10/26 09:42:54;;;;;;;13.30;4.57;;;15.70;99.90;;;;;;5100444;28;20416;-62
2022/10/26 09:45:23;;;;;;;9.50;4.10;;;15.80;99.90;;;;;;5106552;28;20433;-62
2022/10/26 09:47:52;;;;;;;8.47;4.23;;;15.80;99.90;;;;;;5111011;28;20463;-62
2022/10/26 09:50:29;;;;;;;10.13;4.17;;;15.90;99.90;;;;;;5111108;28;20427;-62
2022/10/26 09:52:55;;;;;;;13.57;3.77;;;16.00;99.90;;;;;;5099663;28;21083;-62
2022/10/26 09:55:21;;;;;;;16.70;4.20;;;16.10;99.90;;;;;;5110102;28;20507;-63
2022/10/26 09:57:51;;;;;;;8.70;3.60;;;16.30;99.90;;;;;;5107679;28;20200;-61
2022/10/26 10:00:19;;;;;;;8.17;4.30;;;16.40;99.90;;;;;;5109728;28;20516;-62
2022/10/26 10:02:54;;;;;;;18.47;4.03;;;16.60;99.90;;;;;;5106059;28;20423;-62
2022/10/26 10:05:29;;;;;;;6.83;3.80;;;16.70;99.90;;;;;;5110623;28;20555;-63
2022/10/26 10:08:12;;;;;;;13.23;4.27;;;16.70;99.90;;;;;;5099012;28;20434;-62
2022/10/26 10:10:51;;;;;;;10.13;4.73;;;16.80;99.90;;;;;;5134482;22;20438;-53
2022/10/26 10:13:20;;;;;;;8.13;3.50;;;16.80;99.90;;;;;;5065786;28;20424;-55
2022/10/26 10:16:03;;;;;;;16.60;4.07;;;16.80;99.90;;;;;;5066151;28;20432;-54
2022/10/26 10:18:29;;;;;;;11.33;4.20;;;16.90;99.90;;;;;;5067681;28;20803;-55
2022/10/26 10:20:57;;;;;;;12.10;4.30;;;17.00;99.90;;;;;;5066453;28;20542;-55
2022/10/26 10:23:31;;;;;;;12.13;4.40;;;17.10;99.90;;;;;;5080812;28;20517;-56
2022/10/26 10:26:06;;;;;;;8.57;4.23;;;17.10;99.90;;;;;;5083433;28;20431;-55
2022/10/26 10:28:33;;;;;;;15.67;3.73;;;17.10;99.90;;;;;;5086133;28;20455;-55
2022/10/26 10:31:05;;;;;;;9.37;4.13;;;17.00;99.90;;;;;;5075818;28;20463;-55
2022/10/26 10:33:41;;;;;;;13.27;4.67;;;17.00;99.90;;;;;;5073366;28;20431;-54
2022/10/26 10:36:12;;;;;;;9.17;4.00;;;17.00;99.90;;;;;;5088162;28;20484;-55
2022/10/26 10:38:44;;;;;;;10.03;3.67;;;17.00;99.90;;;;;;5085551;28;20988;-55
2022/10/26 10:41:35;;;;;;;6.10;3.60;;;17.10;99.90;;;;;;5088046;28;20475;-55
2022/10/26 10:44:07;;;;;;;11.67;4.27;;;17.20;99.90;;;;;;5078669;28;20431;-61
2022/10/26 10:46:34;;;;;;;19.93;3.43;;;17.40;99.90;;;;;;5074583;28;20423;-55
2022/10/26 10:49:05;;;;;;;9.20;3.83;;;17.60;99.90;;;;;;5084014;28;20435;-55
2022/10/26 10:51:38;;;;;;;9.37;3.50;;;17.80;99.90;;;;;;5085878;28;20965;-55
2022/10/26 10:54:10;;;;;;;12.37;3.90;;;18.10;99.90;;;;;;5082040;28;20400;-54
2022/10/26 10:56:47;;;;;;;8.03;3.60;;;18.40;99.90;;;;;;5083909;28;20508;-55
2022/10/26 10:59:38;;;;;;;9.77;3.57;;;18.70;99.90;;;;;;5087080;28;20420;-55
2022/10/26 11:02:22;;;;;;;8.63;3.67;;;18.80;99.90;;;;;;5085900;28;20500;-55
2022/10/26 11:05:09;;;;;;;14.73;3.40;;;19.10;99.90;;;;;;5082216;28;20415;-55
2022/10/26 11:07:45;;;;;;;11.13;3.83;;;19.30;99.90;;;;;;5086938;28;20511;-57
2022/10/26 11:10:14;;;;;;;24.47;4.57;;;19.50;99.90;;;;;;5075848;28;20997;-56
2022/10/26 11:12:52;;;;;;;11.27;4.20;;;19.70;99.90;;;;;;5089861;28;20517;-56
2022/10/26 11:15:22;;;;;;;9.03;4.47;;;19.90;99.90;;;;;;5076333;28;20435;-55
2022/10/26 11:18:06;;;;;;;10.53;4.53;;;20.20;97.40;;;;;;5081971;28;20419;-57
2022/10/26 11:20:37;;;;;;;15.10;4.37;;;20.30;98.10;;;;;;5079578;28;20564;-55
2022/10/26 11:23:20;;;;;;;7.47;4.80;;;20.40;98.90;;;;;;5082645;28;20476;-57
2022/10/26 11:25:50;;;;;;;9.70;4.57;;;20.40;95.80;;;;;;5082297;28;20427;-56
2022/10/26 11:28:29;;;;;;;9.00;4.33;;;20.50;93.00;;;;;;5081639;28;20428;-58
2022/10/26 11:31:00;;;;;;;8.43;4.17;;;20.70;92.40;;;;;;5081826;28;20852;-58
2022/10/26 11:33:31;;;;;;;10.77;4.53;;;21.00;90.00;;;;;;5076437;28;20538;-59
2022/10/26 11:35:59;;;;;;;8.50;3.93;;;21.30;85.70;;;;;;5078028;28;21179;-58
2022/10/26 11:39:01;;;;;;;9.07;3.73;;;21.30;79.20;;;;;;5074072;28;20428;-57
2022/10/26 11:41:47;;;;;;;6.93;3.57;;;21.20;86.50;;;;;;5051987;28;21192;-56
2022/10/26 11:44:36;;;;;;;18.43;4.27;;;21.40;87.70;;;;;;5077266;28;20434;-57
2022/10/26 11:47:18;;;;;;;6.70;3.60;;;22.00;85.60;;;;;;5076736;28;20424;-57
2022/10/26 11:50:11;;;;;;;8.43;4.00;;;22.70;75.90;;;;;;5077167;28;20454;-56
2022/10/26 11:52:45;;;;;;;11.53;3.93;;;23.10;70.20;;;;;;5063819;28;20448;-57
2022/10/26 11:55:11;;;;;;;10.07;3.30;;;23.70;70.00;;;;;;5079705;28;20424;-57
2022/10/26 11:57:37;;;;;;;12.97;3.00;;;24.40;66.00;;;;;;5087486;28;20192;-56
2022/10/26 12:00:12;;;;;;;21.10;3.50;;;25.00;62.70;;;;;;5090839;28;20323;-57
2022/10/26 12:02:42;;;;;;;10.60;3.45;;;25.70;60.50;;;;;;5079452;28;20197;-58
2022/10/26 12:05:15;;;;;;;4.47;3.00;;;26.30;58.70;;;;;;5090632;28;20499;-59
2022/10/26 12:07:54;;;;;;;5.10;2.53;;;26.80;55.40;;;;;;5086130;28;20185;-59
2022/10/26 12:10:31;;;;;;;10.45;3.10;;;26.50;55.40;;;;;;5081471;28;20169;-59
2022/10/26 12:13:21;;;;;;;8.93;3.25;;;26.40;55.40;;;;;;5072817;28;20251;-56
2022/10/26 12:16:26;;;;;;;15.15;3.90;;;25.50;55.40;;;;;;5075656;28;20195;-57
2022/10/26 12:19:03;;;;;;;8.88;2.58;;;24.20;57.30;;;;;;5082440;28;20166;-56
2022/10/26 12:21:33;;;;;;;13.93;3.20;;;23.10;60.20;;;;;;5086768;28;20647;-56
2022/10/26 12:24:19;;;;;;;14.20;3.33;;;22.80;63.70;;;;;;5088878;28;20266;-56
2022/10/26 12:27:25;;;;;;;9.43;3.20;;;22.60;65.80;;;;;;5087255;28;21405;-58
2022/10/26 12:30:14;;;;;;;7.67;3.20;;;22.70;69.30;;;;;;5086394;28;20174;-56
2022/10/26 12:32:40;;;;;;;14.63;3.60;;;23.70;66.70;;;;;;5087918;28;20197;-57
2022/10/26 12:35:30;;;;;;;8.97;3.13;;;24.60;62.50;;;;;;5090505;28;20181;-56
2022/10/26 12:37:57;;;;;;;6.78;2.90;;;25.60;56.90;;;;;;5082683;28;20374;-57
2022/10/26 12:40:39;;;;;;;7.10;2.85;;;26.20;55.10;;;;;;5087032;28;20197;-57
2022/10/26 12:43:14;;;;;;;6.95;2.85;;;26.80;54.60;;;;;;5086795;28;20186;-59
2022/10/26 12:45:41;;;;;;;11.02;2.95;;;26.90;52.70;;;;;;5083600;28;20646;-57
2022/10/26 12:48:26;;;;;;;9.55;2.65;;;26.50;53.10;;;;;;5080445;28;20236;-57
2022/10/26 12:50:52;;;;;;;12.88;3.78;;;25.90;55.40;;;;;;5091058;28;20371;-56
2022/10/26 12:53:20;;;;;;;15.68;3.75;;;25.40;56.50;;;;;;5087857;28;20173;-58
2022/10/26 12:55:49;;;;;;;12.93;3.38;;;24.90;56.60;;;;;;5081307;28;20520;-58
2022/10/26 12:58:26;;;;;;;8.77;3.10;;;24.50;57.10;;;;;;5077361;28;20210;-57
2022/10/26 13:00:58;;;;;;;11.87;3.73;;;24.20;54.80;;;;;;5089492;28;20173;-57
2022/10/26 13:03:45;;;;;;;8.93;3.07;;;23.80;54.60;;;;;;5082414;28;20238;-57